Time,TemperatureF,DewpointF,PressureIn,WindDirection,WindDirectionDegrees,WindSpeedMPH,WindSpeedGustMPH,Humidity,HourlyPrecipIn,Conditions,Clouds,dailyrainin,SoftwareType,DateUTC
2013-02-05 00:01:00,20.0,17.8,29.99,NE,34,2.0,3.0,91,0.00,,---,0.00,VWS V14.01,2013-02-05 05:01:00,
2013-02-05 00:16:00,19.4,17.0,29.99,NE,34,0.0,3.0,90,0.00,,---,0.00,VWS V14.01,2013-02-05 05:16:00,
2013-02-05 00:31:00,19.2,17.0,29.98,NE,34,0.0,2.0,91,0.00,,---,0.00,VWS V14.01,2013-02-05 05:31:00,
2013-02-05 00:46:00,18.8,16.4,30.00,NE,34,0.0,1.0,90,0.00,,---,0.00,VWS V14.01,2013-02-05 05:46:00,
2013-02-05 01:01:00,18.5,16.1,29.99,NE,34,0.0,2.0,90,0.00,,---,0.00,VWS V14.01,2013-02-05 06:01:00,
2013-02-05 01:16:00,18.3,15.9,29.99,NE,34,0.0,1.0,90,0.00,,---,0.00,VWS V14.01,2013-02-05 06:16:00,
2013-02-05 01:31:00,18.0,15.6,29.99,NE,34,0.0,0.0,90,0.00,,---,0.00,VWS V14.01,2013-02-05 06:31:00,
2013-02-05 01:46:00,17.6,15.2,29.99,NE,34,0.0,0.0,90,0.00,,---,0.00,VWS V14.01,2013-02-05 06:46:00,
2013-02-05 02:01:00,17.7,15.5,29.98,NE,34,1.0,2.0,91,0.00,,---,0.00,VWS V14.01,2013-02-05 07:01:00,
2013-02-05 02:16:00,17.5,15.3,29.98,NE,34,0.0,1.0,91,0.00,,---,0.00,VWS V14.01,2013-02-05 07:16:00,
2013-02-05 02:31:00,17.5,15.6,29.98,NE,34,0.0,0.0,92,0.00,,---,0.00,VWS V14.01,2013-02-05 07:31:00,
2013-02-05 02:46:00,17.7,15.8,29.99,NE,34,0.0,0.0,92,0.00,,---,0.00,VWS V14.01,2013-02-05 07:46:00,
2013-02-05 03:01:00,17.9,16.0,29.98,NE,34,0.0,1.0,92,0.00,,---,0.00,VWS V14.01,2013-02-05 08:01:00,
2013-02-05 03:16:00,17.9,16.0,29.98,NE,34,0.0,0.0,92,0.00,,---,0.00,VWS V14.01,2013-02-05 08:16:00,
2013-02-05 03:31:00,17.7,15.8,29.98,NE,34,0.0,1.0,92,0.00,,---,0.00,VWS V14.01,2013-02-05 08:31:00,
2013-02-05 03:46:00,18.0,16.1,29.97,NE,34,0.0,2.0,92,0.00,,---,0.00,VWS V14.01,2013-02-05 08:46:00,
2013-02-05 04:01:00,17.7,15.8,29.97,NE,34,0.0,0.0,92,0.00,,---,0.00,VWS V14.01,2013-02-05 09:01:00,
2013-02-05 04:16:00,17.5,15.6,29.97,NE,34,0.0,2.0,92,0.00,,---,0.00,VWS V14.01,2013-02-05 09:16:00,
2013-02-05 04:31:00,17.0,15.1,29.97,NE,34,0.0,0.0,92,0.00,,---,0.00,VWS V14.01,2013-02-05 09:31:00,
2013-02-05 04:46:00,16.7,14.8,29.96,NE,34,0.0,1.0,92,0.00,,---,0.00,VWS V14.01,2013-02-05 09:46:00,
2013-02-05 05:01:00,17.2,15.5,29.95,NE,34,2.0,2.0,93,0.00,,---,0.00,VWS V14.01,2013-02-05 10:01:00,
2013-02-05 05:16:00,17.5,15.8,29.95,NE,34,0.0,2.0,93,0.00,,---,0.00,VWS V14.01,2013-02-05 10:16:00,
2013-02-05 05:31:00,17.2,15.5,29.96,NE,34,0.0,3.0,93,0.00,,---,0.00,VWS V14.01,2013-02-05 10:31:00,
2013-02-05 05:46:00,17.0,15.3,29.97,NE,38,0.0,3.0,93,0.00,,---,0.00,VWS V14.01,2013-02-05 10:46:00,
2013-02-05 06:01:00,16.4,14.7,29.97,NE,38,0.0,1.0,93,0.00,,---,0.00,VWS V14.01,2013-02-05 11:01:00,
2013-02-05 06:16:00,16.0,14.3,29.96,NE,38,0.0,3.0,93,0.00,,---,0.00,VWS V14.01,2013-02-05 11:16:00,
2013-02-05 06:31:00,16.0,14.3,29.96,NE,47,1.0,3.0,93,0.00,,---,0.00,VWS V14.01,2013-02-05 11:31:00,
2013-02-05 06:46:00,16.1,14.7,29.96,NE,47,2.0,3.0,94,0.00,,---,0.00,VWS V14.01,2013-02-05 11:46:00,
2013-02-05 07:01:00,16.0,14.6,29.96,ENE,59,1.0,3.0,94,0.00,,---,0.00,VWS V14.01,2013-02-05 12:01:00,
2013-02-05 07:16:00,16.2,14.8,29.96,East,90,0.0,3.0,94,0.00,,---,0.00,VWS V14.01,2013-02-05 12:16:00,
2013-02-05 07:31:00,16.3,14.9,29.96,East,93,1.0,3.0,94,0.00,,---,0.00,VWS V14.01,2013-02-05 12:31:00,
2013-02-05 07:46:00,16.3,14.9,29.97,East,93,1.0,3.0,94,0.00,,---,0.00,VWS V14.01,2013-02-05 12:46:00,
2013-02-05 08:01:00,16.6,15.2,29.97,SE,141,0.0,4.0,94,0.00,,---,0.00,VWS V14.01,2013-02-05 13:01:00,
2013-02-05 08:16:00,16.9,15.5,29.98,SE,143,0.0,3.0,94,0.00,,---,0.00,VWS V14.01,2013-02-05 13:16:00,
2013-02-05 08:31:00,17.5,16.1,29.98,South,173,2.0,4.0,94,0.00,,---,0.00,VWS V14.01,2013-02-05 13:31:00,
2013-02-05 08:46:00,17.8,16.4,29.98,South,179,3.0,5.0,94,0.00,,---,0.00,VWS V14.01,2013-02-05 13:46:00,
2013-02-05 09:01:00,18.3,16.9,29.97,South,179,0.0,6.0,94,0.00,,---,0.00,VWS V14.01,2013-02-05 14:01:00,
2013-02-05 09:16:00,18.9,17.5,29.97,South,179,3.0,5.0,94,0.00,,---,0.00,VWS V14.01,2013-02-05 14:16:00,
2013-02-05 09:31:00,19.5,18.1,29.96,SSW,194,4.0,7.0,94,0.00,,---,0.00,VWS V14.01,2013-02-05 14:31:00,
2013-02-05 09:46:00,20.2,18.8,29.96,SSW,194,4.0,7.0,94,0.00,,---,0.00,VWS V14.01,2013-02-05 14:46:00,
2013-02-05 10:01:00,21.1,19.6,29.95,SSW,205,7.0,8.0,94,0.00,,---,0.00,VWS V14.01,2013-02-05 15:01:00,
2013-02-05 10:16:00,21.8,20.3,29.94,SSW,193,8.0,9.0,94,0.00,,---,0.00,VWS V14.01,2013-02-05 15:16:00,
2013-02-05 10:31:00,22.3,20.6,29.93,SW,215,6.0,14.0,93,0.00,,---,0.00,VWS V14.01,2013-02-05 15:31:00,
2013-02-05 10:46:00,23.0,21.3,29.93,SW,236,7.0,13.0,93,0.00,,---,0.00,VWS V14.01,2013-02-05 15:46:00,
2013-02-05 11:01:00,23.7,21.7,29.92,SSW,192,1.0,13.0,92,0.00,,---,0.00,VWS V14.01,2013-02-05 16:01:00,
2013-02-05 11:16:00,24.2,22.0,29.92,SSW,206,5.0,13.0,91,0.00,,---,0.00,VWS V14.01,2013-02-05 16:16:00,
2013-02-05 11:31:00,25.1,22.6,29.92,South,186,5.0,13.0,90,0.00,,---,0.00,VWS V14.01,2013-02-05 16:31:00,
2013-02-05 11:46:00,25.6,22.5,29.92,SSW,208,6.0,15.0,88,0.00,,---,0.00,VWS V14.01,2013-02-05 16:46:00,
2013-02-05 12:01:00,26.2,22.6,29.91,South,191,11.0,15.0,86,0.00,,---,0.00,VWS V14.01,2013-02-05 17:01:00,
2013-02-05 12:16:00,27.4,23.2,29.89,South,187,10.0,15.0,84,0.00,,---,0.00,VWS V14.01,2013-02-05 17:16:00,
2013-02-05 12:31:00,27.4,22.6,29.88,WSW,251,4.0,18.0,82,0.00,,---,0.00,VWS V14.01,2013-02-05 17:31:00,
2013-02-05 12:46:00,28.0,23.2,29.87,SSW,208,15.0,16.0,82,0.00,,---,0.00,VWS V14.01,2013-02-05 17:46:00,
2013-02-05 13:01:00,28.0,22.9,29.87,SSW,193,7.0,19.0,81,0.00,,---,0.00,VWS V14.01,2013-02-05 18:01:00,
2013-02-05 13:16:00,28.5,23.1,29.87,SE,142,4.0,16.0,80,0.00,,---,0.00,VWS V14.01,2013-02-05 18:16:00,
2013-02-05 13:31:00,28.4,22.7,29.87,South,180,10.0,14.0,79,0.00,,---,0.00,VWS V14.01,2013-02-05 18:31:00,
2013-02-05 13:46:00,28.3,22.9,29.86,WSW,237,5.0,14.0,80,0.00,,---,0.00,VWS V14.01,2013-02-05 18:46:00,
2013-02-05 14:01:00,28.5,23.1,29.86,SW,234,3.0,14.0,80,0.00,,---,0.00,VWS V14.01,2013-02-05 19:01:00,
2013-02-05 14:16:00,28.7,23.3,29.86,WSW,242,4.0,15.0,80,0.00,,---,0.00,VWS V14.01,2013-02-05 19:16:00,
2013-02-05 14:31:00,28.5,24.0,29.86,SSW,202,7.0,18.0,83,0.00,,---,0.00,VWS V14.01,2013-02-05 19:31:00,
2013-02-05 14:46:00,28.1,24.5,29.86,WSW,242,3.0,11.0,86,0.00,,---,0.00,VWS V14.01,2013-02-05 19:46:00,
2013-02-05 15:01:00,27.8,25.0,29.86,WSW,246,6.0,12.0,89,0.00,,---,0.00,VWS V14.01,2013-02-05 20:01:00,
2013-02-05 15:16:00,27.6,25.3,29.87,WSW,241,4.0,9.0,91,0.00,,---,0.00,VWS V14.01,2013-02-05 20:16:00,
2013-02-05 15:31:00,27.4,25.6,29.87,SW,232,2.0,7.0,93,0.00,,---,0.00,VWS V14.01,2013-02-05 20:31:00,
2013-02-05 15:46:00,27.5,26.0,29.87,SW,233,6.0,6.0,94,0.00,,---,0.00,VWS V14.01,2013-02-05 20:46:00,
2013-02-05 16:01:00,27.6,26.1,29.88,SW,227,2.0,7.0,94,0.00,,---,0.00,VWS V14.01,2013-02-05 21:01:00,
2013-02-05 16:16:00,27.8,26.3,29.88,SW,232,3.0,5.0,94,0.00,,---,0.00,VWS V14.01,2013-02-05 21:16:00,
2013-02-05 16:31:00,27.9,26.7,29.88,SW,235,3.0,5.0,95,0.00,,---,0.00,VWS V14.01,2013-02-05 21:31:00,
2013-02-05 16:46:00,28.1,26.9,29.89,WSW,250,4.0,6.0,95,0.00,,---,0.00,VWS V14.01,2013-02-05 21:46:00,
2013-02-05 17:01:00,28.3,27.0,29.90,West,262,3.0,7.0,95,0.00,,---,0.00,VWS V14.01,2013-02-05 22:01:00,
2013-02-05 17:16:00,28.2,27.0,29.90,WSW,254,3.0,7.0,95,0.00,,---,0.00,VWS V14.01,2013-02-05 22:16:00,
2013-02-05 17:31:00,27.9,26.7,29.91,West,274,7.0,13.0,95,0.00,,---,0.00,VWS V14.01,2013-02-05 22:31:00,
2013-02-05 17:46:00,28.0,26.5,29.92,West,268,6.0,13.0,94,0.00,,---,0.00,VWS V14.01,2013-02-05 22:46:00,
2013-02-05 18:01:00,27.8,26.3,29.92,WSW,257,5.0,10.0,94,0.00,,---,0.00,VWS V14.01,2013-02-05 23:01:00,
2013-02-05 18:16:00,27.7,26.2,29.92,West,264,3.0,8.0,94,0.00,,---,0.00,VWS V14.01,2013-02-05 23:16:00,
2013-02-05 18:31:00,27.8,26.3,29.92,West,269,4.0,8.0,94,0.00,,---,0.00,VWS V14.01,2013-02-05 23:31:00,
2013-02-05 18:46:00,27.9,26.1,29.94,West,270,6.0,10.0,93,0.00,,---,0.00,VWS V14.01,2013-02-05 23:46:00,
2013-02-05 19:01:00,28.1,26.3,29.94,WSW,254,6.0,11.0,93,0.00,,---,0.00,VWS V14.01,2013-02-06 00:01:00,
2013-02-05 19:16:00,28.1,26.3,29.95,West,260,7.0,11.0,93,0.00,,---,0.00,VWS V14.01,2013-02-06 00:16:00,
2013-02-05 19:31:00,28.2,26.4,29.95,WNW,284,4.0,9.0,93,0.00,,---,0.00,VWS V14.01,2013-02-06 00:31:00,
2013-02-05 19:46:00,28.2,26.4,29.96,WNW,282,3.0,9.0,93,0.00,,---,0.00,VWS V14.01,2013-02-06 00:46:00,
2013-02-05 20:01:00,28.5,26.5,29.97,West,268,8.0,10.0,92,0.00,,---,0.00,VWS V14.01,2013-02-06 01:01:00,
2013-02-05 20:16:00,28.6,26.3,29.98,West,277,4.0,10.0,91,0.00,,---,0.00,VWS V14.01,2013-02-06 01:16:00,
2013-02-05 20:31:00,28.7,26.1,29.99,WNW,301,5.0,11.0,90,0.00,,---,0.00,VWS V14.01,2013-02-06 01:31:00,
2013-02-05 20:46:00,28.6,26.0,30.00,WNW,293,4.0,15.0,90,0.00,,---,0.00,VWS V14.01,2013-02-06 01:46:00,
2013-02-05 21:01:00,28.4,25.9,30.00,West,278,11.0,13.0,90,0.00,,---,0.00,VWS V14.01,2013-02-06 02:01:00,
2013-02-05 21:16:00,28.0,25.7,30.01,WNW,292,3.0,12.0,91,0.00,,---,0.00,VWS V14.01,2013-02-06 02:16:00,
2013-02-05 21:31:00,27.9,25.9,30.02,NW,310,6.0,10.0,92,0.00,,---,0.00,VWS V14.01,2013-02-06 02:31:00,
2013-02-05 21:46:00,27.8,26.0,30.02,WNW,288,4.0,10.0,93,0.00,,---,0.00,VWS V14.01,2013-02-06 02:46:00,
2013-02-05 22:01:00,28.0,26.2,30.03,West,277,7.0,11.0,93,0.00,,---,0.00,VWS V14.01,2013-02-06 03:01:00,
2013-02-05 22:16:00,28.2,25.6,30.04,NW,320,6.0,11.0,90,0.00,,---,0.00,VWS V14.01,2013-02-06 03:16:00,
2013-02-05 22:31:00,28.4,25.0,30.04,WNW,296,9.0,11.0,87,0.00,,---,0.00,VWS V14.01,2013-02-06 03:31:00,
2013-02-05 22:46:00,28.4,25.0,30.04,WNW,289,4.0,10.0,87,0.00,,---,0.00,VWS V14.01,2013-02-06 03:46:00,
2013-02-05 23:01:00,28.4,24.2,30.06,WNW,302,5.0,12.0,84,0.00,,---,0.00,VWS V14.01,2013-02-06 04:01:00,
2013-02-05 23:16:00,28.4,23.9,30.06,WNW,293,4.0,13.0,83,0.00,,---,0.00,VWS V14.01,2013-02-06 04:16:00,
2013-02-05 23:31:00,28.3,23.5,30.06,WNW,283,6.0,10.0,82,0.00,,---,0.00,VWS V14.01,2013-02-06 04:31:00,
2013-02-05 23:46:00,28.3,23.5,30.07,WNW,286,8.0,11.0,82,0.00,,---,0.00,VWS V14.01,2013-02-06 04:46:00,